Time;durP1;ratioP1;P1;durP2;ratioP2;P2;SDS_P1;SDS_P2;PMS_P1;PMS_P2;Temp;Humidity;BMP_temperature;BMP_pressure;BME280_temperature;BME280_humidity;BME280_pressure;Samples;Min_cycle;Max_cycle;Signal;HPM_P1;HPM_P2
2023/11/17 00:01:22;;;;;;;2.72;1.95;;;0.00;96.70;;;;;;5112182;28;20026;-85
2023/11/17 00:03:48;;;;;;;3.70;2.58;;;-0.10;96.40;;;;;;5101089;28;20485;-85
2023/11/17 00:06:14;;;;;;;3.70;2.15;;;-0.10;96.40;;;;;;5079958;28;20036;-87
2023/11/17 00:08:40;;;;;;;3.03;1.92;;;-0.10;96.50;;;;;;5105250;28;20031;-87
2023/11/17 00:11:06;;;;;;;3.15;2.28;;;-0.10;96.60;;;;;;5101755;28;20024;-85
2023/11/17 00:13:32;;;;;;;4.47;2.95;;;-0.10;96.70;;;;;;5099042;28;20016;-84
2023/11/17 00:15:58;;;;;;;2.65;2.00;;;0.00;96.60;;;;;;5105275;28;20563;-86
2023/11/17 00:18:24;;;;;;;2.78;1.65;;;0.00;96.40;;;;;;5099792;28;20023;-86
2023/11/17 00:20:52;;;;;;;5.07;2.47;;;-0.10;96.20;;;;;;5099992;28;20027;-87
2023/11/17 00:23:19;;;;;;;2.75;2.08;;;-0.10;96.30;;;;;;5102114;28;20027;-87
2023/11/17 00:25:45;;;;;;;2.15;1.67;;;-0.10;96.20;;;;;;5091749;28;20519;-85
2023/11/17 00:28:10;;;;;;;2.05;1.85;;;-0.20;96.00;;;;;;5113287;28;20016;-85
2023/11/17 00:30:36;;;;;;;4.30;2.13;;;-0.10;96.00;;;;;;5130425;28;20045;-86
2023/11/17 00:33:02;;;;;;;3.83;2.33;;;-0.20;96.00;;;;;;5113602;28;20024;-85
2023/11/17 00:35:28;;;;;;;3.20;2.38;;;-0.10;96.10;;;;;;5097217;28;20023;-86
2023/11/17 00:37:54;;;;;;;4.25;2.35;;;-0.10;96.10;;;;;;5086322;28;20031;-86
2023/11/17 00:40:20;;;;;;;4.43;2.10;;;-0.20;96.00;;;;;;5108507;28;20023;-86
2023/11/17 00:42:46;;;;;;;2.50;2.00;;;-0.10;95.90;;;;;;5103069;28;20081;-84
2023/11/17 00:45:12;;;;;;;4.22;2.22;;;-0.10;95.80;;;;;;5106018;28;20024;-86
2023/11/17 00:47:37;;;;;;;3.10;1.75;;;-0.10;95.80;;;;;;5102284;28;20039;-84
2023/11/17 00:50:04;;;;;;;2.95;1.60;;;-0.10;95.70;;;;;;5097780;28;20095;-85
2023/11/17 00:52:29;;;;;;;1.90;1.40;;;-0.10;95.60;;;;;;5096722;28;20020;-84
2023/11/17 00:55:02;;;;;;;2.90;1.75;;;-0.10;95.60;;;;;;5099647;28;20496;-84
2023/11/17 00:57:29;;;;;;;5.28;2.15;;;-0.20;95.40;;;;;;5099470;28;20055;-86
2023/11/17 00:59:55;;;;;;;2.83;2.08;;;-0.30;95.40;;;;;;5106963;28;20027;-87
2023/11/17 01:02:20;;;;;;;3.30;2.25;;;-0.30;95.40;;;;;;5104006;28;20099;-87
2023/11/17 01:04:46;;;;;;;4.00;2.17;;;-0.30;95.20;;;;;;5103239;28;20116;-87
2023/11/17 01:07:12;;;;;;;4.13;2.10;;;-0.20;95.10;;;;;;5109377;28;20015;-86
2023/11/17 01:09:38;;;;;;;2.92;1.95;;;-0.20;95.10;;;;;;5109216;28;20023;-87
2023/11/17 01:12:04;;;;;;;3.85;2.08;;;-0.20;95.10;;;;;;5106835;28;20051;-86
2023/11/17 01:14:30;;;;;;;2.90;2.28;;;-0.20;95.00;;;;;;5098909;28;20016;-86
2023/11/17 01:16:56;;;;;;;2.05;1.50;;;-0.20;94.90;;;;;;5099114;28;20023;-88
2023/11/17 01:19:22;;;;;;;6.78;3.13;;;-0.30;94.80;;;;;;5092181;28;20040;-86
2023/11/17 01:21:48;;;;;;;3.10;1.60;;;-0.30;94.90;;;;;;5102422;28;20043;-87
2023/11/17 01:24:14;;;;;;;2.00;1.60;;;-0.30;94.90;;;;;;5103761;28;20103;-87
2023/11/17 01:26:40;;;;;;;2.28;1.88;;;-0.30;94.70;;;;;;5100776;28;20105;-87
2023/11/17 01:29:06;;;;;;;4.32;2.42;;;-0.30;94.60;;;;;;5085143;28;20024;-85
2023/11/17 01:31:32;;;;;;;2.05;1.85;;;-0.30;94.50;;;;;;5115660;28;20035;-86
2023/11/17 01:33:58;;;;;;;2.45;1.80;;;-0.30;94.40;;;;;;5080750;28;20549;-85
2023/11/17 01:36:24;;;;;;;3.90;1.90;;;-0.30;94.40;;;;;;5099203;28;20050;-86
2023/11/17 01:38:52;;;;;;;3.45;2.08;;;-0.30;94.40;;;;;;5111367;28;20024;-84
2023/11/17 01:41:18;;;;;;;3.22;2.00;;;-0.30;94.40;;;;;;5098227;28;20069;-85
2023/11/17 01:43:44;;;;;;;3.65;2.40;;;-0.20;94.40;;;;;;5099482;28;20028;-85
2023/11/17 01:46:10;;;;;;;3.65;1.98;;;-0.20;94.40;;;;;;5087561;28;20099;-86
2023/11/17 01:48:38;;;;;;;2.05;1.58;;;-0.30;94.30;;;;;;5120631;28;20024;-85
2023/11/17 01:51:05;;;;;;;3.45;1.90;;;-0.30;94.30;;;;;;5097843;28;20020;-87
2023/11/17 01:53:31;;;;;;;2.20;1.83;;;-0.20;94.20;;;;;;5086407;28;20111;-86
2023/11/17 01:55:57;;;;;;;4.10;1.42;;;-0.20;94.00;;;;;;5099524;28;20046;-85
2023/11/17 01:58:24;;;;;;;2.83;1.50;;;-0.20;93.40;;;;;;5104988;28;20156;-87
2023/11/17 02:00:52;;;;;;;2.60;1.83;;;-0.30;93.50;;;;;;5099979;28;20032;-86
2023/11/17 02:03:19;;;;;;;3.58;1.92;;;-0.30;93.70;;;;;;5096389;28;20265;-87
2023/11/17 02:05:51;;;;;;;4.32;2.13;;;-0.20;93.90;;;;;;5127069;28;20443;-86
2023/11/17 02:08:51;;;;;;;2.28;1.60;;;-0.30;93.80;;;;;;5095712;28;20058;-84
2023/11/17 02:11:39;;;;;;;2.08;1.50;;;-0.20;93.50;;;;;;5078136;28;20034;-85
2023/11/17 02:14:24;;;;;;;2.47;1.40;;;-0.30;93.20;;;;;;5105370;28;20015;-87
2023/11/17 02:16:51;;;;;;;2.15;1.60;;;-0.40;93.50;;;;;;5109512;28;20028;-87
2023/11/17 02:19:34;;;;;;;;;;;-0.40;93.70;;;;;;5106883;28;20024;-85
2023/11/17 02:22:06;;;;;;;2.90;1.85;;;-0.40;93.80;;;;;;5115250;28;19907;-86
2023/11/17 02:24:44;;;;;;;3.17;1.85;;;-0.50;93.50;;;;;;5095765;28;20388;-86
2023/11/17 02:27:14;;;;;;;;;;;-0.50;93.60;;;;;;5091197;28;20085;-86
2023/11/17 02:29:44;;;;;;;3.67;1.60;;;-0.40;93.80;;;;;;5110845;28;19904;-86
2023/11/17 02:32:16;;;;;;;2.35;1.77;;;-0.40;93.70;;;;;;5096830;28;20028;-86
2023/11/17 02:34:44;;;;;;;1.70;1.40;;;;;;;;;;5095966;28;20115;-87
2023/11/17 02:37:11;;;;;;;3.95;1.98;;;-0.50;93.20;;;;;;5096221;28;20024;-87
2023/11/17 02:39:38;;;;;;;2.45;1.38;;;-0.60;93.10;;;;;;5098226;28;20468;-85
2023/11/17 02:42:10;;;;;;;3.10;1.90;;;-0.70;93.20;;;;;;5098426;28;20048;-86
2023/11/17 02:44:40;;;;;;;4.53;2.10;;;-0.70;93.30;;;;;;5098981;28;20023;-85
2023/11/17 02:47:09;;;;;;;3.17;1.83;;;-0.80;93.20;;;;;;5114096;28;20023;-85
2023/11/17 02:49:40;;;;;;;2.72;1.38;;;-0.80;93.20;;;;;;5101680;28;20466;-86
2023/11/17 02:52:15;;;;;;;4.13;2.28;;;-0.80;93.40;;;;;;5099344;28;20063;-84
2023/11/17 02:54:41;;;;;;;3.47;1.98;;;-0.80;93.30;;;;;;5107495;28;20024;-86
2023/11/17 02:57:08;;;;;;;3.33;1.98;;;-0.80;93.30;;;;;;5111960;28;20469;-86
2023/11/17 02:59:35;;;;;;;4.30;1.80;;;-0.70;93.40;;;;;;5113661;28;20032;-86
2023/11/17 03:02:02;;;;;;;4.40;2.50;;;-0.70;93.30;;;;;;5088959;28;20031;-85
2023/11/17 03:04:28;;;;;;;;;;;-0.70;93.30;;;;;;5109453;28;20093;-87
2023/11/17 03:06:55;;;;;;;3.63;1.50;;;-0.60;93.40;;;;;;5085884;28;20361;-86
2023/11/17 03:09:22;;;;;;;4.78;1.90;;;-0.70;92.80;;;;;;5104009;28;20071;-86
2023/11/17 03:11:50;;;;;;;4.95;1.48;;;-0.70;92.00;;;;;;5103990;28;20084;-86
2023/11/17 03:14:16;;;;;;;1.83;1.23;;;-0.80;91.80;;;;;;5103214;28;20031;-85
2023/11/17 03:16:42;;;;;;;4.03;2.03;;;-0.80;92.00;;;;;;5113250;28;20024;-84
2023/11/17 03:19:11;;;;;;;5.43;2.38;;;-0.80;92.20;;;;;;5097990;28;20030;-87
2023/11/17 03:21:41;;;;;;;5.15;2.97;;;-0.90;92.40;;;;;;5098817;28;20068;-86
2023/11/17 03:24:20;;;;;;;4.72;2.70;;;-0.80;92.80;;;;;;5100660;28;20047;-85
2023/11/17 03:26:48;;;;;;;4.50;2.45;;;-0.80;93.00;;;;;;5113769;28;20020;-85
2023/11/17 03:29:15;;;;;;;3.67;2.38;;;-0.70;93.20;;;;;;5117694;28;20024;-84
2023/11/17 03:31:52;;;;;;;4.60;2.53;;;-0.70;93.00;;;;;;5121351;28;20031;-88
2023/11/17 03:34:31;;;;;;;3.03;1.45;;;-0.70;92.60;;;;;;5099207;28;20012;-85
2023/11/17 03:37:00;;;;;;;4.50;1.98;;;-0.70;92.70;;;;;;5108706;28;20463;-86
2023/11/17 03:39:27;;;;;;;5.55;3.17;;;-0.80;92.70;;;;;;5097837;28;20049;-86
2023/11/17 03:41:53;;;;;;;5.78;2.33;;;-0.80;92.80;;;;;;5086708;28;20412;-85
2023/11/17 03:44:24;;;;;;;12.65;4.95;;;-0.70;93.00;;;;;;5084214;28;20087;-86
2023/11/17 03:46:55;;;;;;;9.30;5.75;;;-0.70;93.10;;;;;;5108232;28;20070;-85
2023/11/17 03:49:21;;;;;;;3.72;3.05;;;-0.80;93.00;;;;;;5100225;28;20035;-86
2023/11/17 03:51:51;;;;;;;5.60;3.47;;;-0.80;93.20;;;;;;5103736;28;20020;-84
2023/11/17 03:54:19;;;;;;;9.30;3.10;;;-0.80;93.50;;;;;;5100057;28;20096;-85
2023/11/17 03:56:45;;;;;;;3.70;3.13;;;-0.80;93.60;;;;;;5095284;28;20022;-86
2023/11/17 03:59:14;;;;;;;4.30;2.75;;;-0.80;94.00;;;;;;5123613;28;20051;-86
2023/11/17 04:01:40;;;;;;;6.07;2.85;;;-0.80;94.00;;;;;;5121492;28;20045;-87
2023/11/17 04:04:07;;;;;;;8.32;3.72;;;-0.80;94.20;;;;;;5103168;28;20039;-88
2023/11/17 04:06:34;;;;;;;3.78;2.03;;;-0.80;94.40;;;;;;5106012;28;20159;-87
2023/11/17 04:09:04;;;;;;;4.47;2.55;;;-0.80;94.50;;;;;;5087772;28;20153;-85
2023/11/17 04:11:31;;;;;;;5.22;2.63;;;-0.80;94.20;;;;;;5094384;28;20028;-86
2023/11/17 04:13:56;;;;;;;3.53;2.25;;;-0.80;94.20;;;;;;5095092;28;20031;-86
2023/11/17 04:16:22;;;;;;;4.40;3.17;;;-0.80;94.20;;;;;;5096763;28;20020;-87
2023/11/17 04:18:48;;;;;;;3.88;3.00;;;-0.80;94.20;;;;;;5100373;28;20097;-86
2023/11/17 04:21:15;;;;;;;4.40;2.63;;;-0.80;94.30;;;;;;5109036;28;20435;-86
2023/11/17 04:23:41;;;;;;;4.95;2.50;;;-0.80;94.20;;;;;;5094719;28;20334;-86
2023/11/17 04:26:09;;;;;;;5.70;2.63;;;-0.80;94.00;;;;;;5094480;28;20032;-86
2023/11/17 04:28:38;;;;;;;4.15;2.67;;;-0.80;94.00;;;;;;5095885;28;20017;-87
2023/11/17 04:31:05;;;;;;;4.38;3.28;;;-0.80;94.00;;;;;;5110867;28;20019;-86
2023/11/17 04:33:31;;;;;;;6.10;2.45;;;-0.80;94.00;;;;;;5106276;28;20011;-87
2023/11/17 04:35:58;;;;;;;4.00;2.88;;;-0.80;93.80;;;;;;5105367;28;20043;-86
2023/11/17 04:38:24;;;;;;;5.50;3.17;;;-0.90;93.40;;;;;;5104651;28;20012;-86
2023/11/17 04:40:50;;;;;;;5.55;2.65;;;-0.90;93.60;;;;;;5094393;28;20035;-85
2023/11/17 04:43:16;;;;;;;4.72;2.90;;;-1.00;93.50;;;;;;5094251;28;20099;-86
2023/11/17 04:45:43;;;;;;;4.55;2.20;;;-1.00;93.20;;;;;;5106939;28;20085;-86
2023/11/17 04:48:13;;;;;;;6.55;1.73;;;-1.00;93.20;;;;;;5094774;28;20046;-86
2023/11/17 04:50:39;;;;;;;6.05;2.50;;;-1.00;93.20;;;;;;5107144;28;20024;-85
2023/11/17 04:53:06;;;;;;;2.17;1.98;;;-1.10;93.10;;;;;;5102938;28;20427;-86
2023/11/17 04:55:32;;;;;;;7.28;2.22;;;-1.00;93.30;;;;;;5108569;28;20069;-85
2023/11/17 04:58:00;;;;;;;5.10;2.78;;;-1.00;93.20;;;;;;5099783;28;20047;-87
2023/11/17 05:00:26;;;;;;;10.75;3.78;;;-1.00;93.20;;;;;;5104537;28;20485;-86
2023/11/17 05:02:53;;;;;;;8.75;2.90;;;-1.00;93.20;;;;;;5094298;28;20024;-85
2023/11/17 05:05:22;;;;;;;;;;;-1.10;93.30;;;;;;5108931;28;20024;-86
2023/11/17 05:07:48;;;;;;;7.95;3.53;;;-1.10;93.30;;;;;;5103859;28;19908;-87
2023/11/17 05:10:16;;;;;;;5.40;2.50;;;-1.20;93.30;;;;;;5095374;28;20073;-85
2023/11/17 05:12:42;;;;;;;4.75;2.40;;;-1.20;93.40;;;;;;5078089;28;20443;-87
2023/11/17 05:15:12;;;;;;;5.70;2.87;;;-1.20;93.30;;;;;;5109893;28;20030;-86
2023/11/17 05:17:48;;;;;;;4.57;2.25;;;-1.20;93.50;;;;;;5109643;28;20322;-86
2023/11/17 05:20:24;;;;;;;3.97;2.38;;;-1.30;93.70;;;;;;5110184;28;20414;-89
2023/11/17 05:22:54;;;;;;;5.15;2.10;;;-1.30;93.70;;;;;;5103266;28;20047;-87
2023/11/17 05:25:20;;;;;;;8.05;2.50;;;-1.30;93.60;;;;;;5104198;28;20430;-85
2023/11/17 05:27:46;;;;;;;6.32;2.97;;;-1.30;93.60;;;;;;5081303;28;20020;-87
2023/11/17 05:30:14;;;;;;;4.13;2.25;;;-1.30;93.60;;;;;;5096437;28;20489;-86
2023/11/17 05:32:40;;;;;;;8.25;2.75;;;-1.40;93.30;;;;;;5101631;28;20042;-88
2023/11/17 05:35:07;;;;;;;5.30;2.40;;;-1.50;93.50;;;;;;5095473;28;20039;-86
2023/11/17 05:37:36;;;;;;;4.35;3.03;;;-1.50;93.70;;;;;;5095040;28;20101;-87
2023/11/17 05:40:06;;;;;;;6.78;2.45;;;-1.50;93.80;;;;;;5117498;28;20032;-87
2023/11/17 05:42:32;;;;;;;7.25;2.10;;;-1.60;93.80;;;;;;5093027;28;20102;-86
2023/11/17 05:44:58;;;;;;;3.55;2.10;;;-1.50;93.70;;;;;;5121882;28;20020;-88
2023/11/17 05:47:24;;;;;;;6.80;3.25;;;-1.50;93.70;;;;;;5129967;28;20125;-87
2023/11/17 05:49:52;;;;;;;3.75;1.80;;;-1.60;93.80;;;;;;5123861;28;20019;-86
2023/11/17 05:52:18;;;;;;;6.18;2.70;;;-1.70;93.70;;;;;;5099991;28;20027;-86
2023/11/17 05:54:46;;;;;;;5.77;2.20;;;-1.70;93.80;;;;;;5119259;28;20032;-87
2023/11/17 05:57:19;;;;;;;8.30;3.90;;;-1.80;93.80;;;;;;5097359;28;20046;-87
2023/11/17 05:59:57;;;;;;;3.50;2.42;;;-1.90;93.90;;;;;;5116595;28;20027;-87
2023/11/17 06:02:23;;;;;;;4.07;2.15;;;-1.90;93.90;;;;;;5097262;28;20047;-88
2023/11/17 06:04:50;;;;;;;2.80;1.65;;;-2.00;93.90;;;;;;5087955;28;20077;-87
2023/11/17 06:07:16;;;;;;;3.45;2.42;;;-2.00;94.00;;;;;;5086160;28;20073;-88
2023/11/17 06:09:43;;;;;;;4.15;2.33;;;-2.00;94.00;;;;;;5087647;28;20032;-88
2023/11/17 06:12:14;;;;;;;5.70;3.20;;;-2.00;94.20;;;;;;5093477;28;20059;-85
2023/11/17 06:14:41;;;;;;;6.50;2.83;;;-2.00;94.20;;;;;;5109209;28;20076;-87
2023/11/17 06:17:11;;;;;;;5.38;2.58;;;-2.00;94.20;;;;;;5106291;28;20016;-88
2023/11/17 06:19:37;;;;;;;7.63;2.45;;;-2.00;94.20;;;;;;5102683;28;20169;-88
2023/11/17 06:22:07;;;;;;;5.40;2.22;;;-2.00;94.30;;;;;;5092727;28;20130;-85
2023/11/17 06:24:35;;;;;;;4.35;2.40;;;-2.10;94.40;;;;;;5100192;28;20036;-86
2023/11/17 06:27:01;;;;;;;5.35;2.58;;;-2.00;94.40;;;;;;5106523;28;20476;-85
2023/11/17 06:29:27;;;;;;;6.80;3.30;;;-2.00;94.40;;;;;;5103694;28;20024;-89
2023/11/17 06:31:53;;;;;;;6.93;3.58;;;-2.00;94.20;;;;;;5100779;28;20028;-88
2023/11/17 06:34:19;;;;;;;5.88;3.03;;;-2.00;94.30;;;;;;5097818;28;20034;-88
2023/11/17 06:36:45;;;;;;;6.72;3.95;;;-2.00;94.40;;;;;;5112739;28;20026;-88
2023/11/17 06:39:16;;;;;;;5.20;3.00;;;-1.90;94.50;;;;;;5105800;28;20039;-86
2023/11/17 06:41:42;;;;;;;3.58;2.25;;;-1.80;94.40;;;;;;5123968;28;20056;-88
2023/11/17 06:44:09;;;;;;;6.95;3.03;;;-1.60;94.40;;;;;;5120113;28;20016;-88
2023/11/17 06:46:37;;;;;;;4.63;2.70;;;-1.50;94.20;;;;;;5116797;28;20120;-86
2023/11/17 06:49:04;;;;;;;9.70;4.15;;;-1.40;94.20;;;;;;5089206;28;20481;-87
2023/11/17 06:51:33;;;;;;;;;;;-1.30;94.10;;;;;;5114729;28;20020;-87
2023/11/17 06:53:58;;;;;;;9.77;8.75;;;-1.20;93.90;;;;;;5114218;28;19963;-90
2023/11/17 06:56:25;;;;;;;10.00;4.93;;;-1.20;93.70;;;;;;5123526;28;20031;-83
2023/11/17 06:58:51;;;;;;;19.38;3.75;;;-1.20;93.70;;;;;;5109250;28;20070;-88
2023/11/17 07:01:18;;;;;;;5.68;3.08;;;-1.20;93.80;;;;;;5105298;28;20058;-81
2023/11/17 07:03:44;;;;;;;6.75;3.30;;;-1.10;93.70;;;;;;5100053;28;20043;-80
2023/11/17 07:06:11;;;;;;;7.20;3.10;;;-1.10;93.60;;;;;;5090433;28;20103;-79
2023/11/17 07:08:37;;;;;;;7.50;4.00;;;-1.10;93.30;;;;;;5094262;28;20020;-81
2023/11/17 07:11:07;;;;;;;6.72;4.75;;;-1.10;93.10;;;;;;5108363;28;20038;-82
2023/11/17 07:13:36;;;;;;;10.25;4.85;;;-1.10;93.20;;;;;;5103867;28;20057;-83
2023/11/17 07:16:06;;;;;;;9.38;5.10;;;-1.10;93.30;;;;;;5116146;28;20398;-85
2023/11/17 07:18:32;;;;;;;4.22;3.38;;;-1.10;93.30;;;;;;5085927;28;20023;-82
2023/11/17 07:20:58;;;;;;;8.65;4.05;;;-1.20;93.20;;;;;;5112355;28;20030;-83
2023/11/17 07:23:28;;;;;;;6.88;3.92;;;-1.30;92.80;;;;;;5078253;28;20496;-81
2023/11/17 07:25:55;;;;;;;6.72;3.65;;;-1.40;92.70;;;;;;5081115;28;20032;-81
2023/11/17 07:28:21;;;;;;;4.88;3.28;;;-1.30;92.90;;;;;;5094709;28;20020;-79
2023/11/17 07:30:48;;;;;;;7.65;4.20;;;-1.30;92.70;;;;;;5098081;28;20031;-81
2023/11/17 07:33:16;;;;;;;7.87;4.13;;;-1.30;92.70;;;;;;5096613;28;20028;-81
2023/11/17 07:35:42;;;;;;;12.77;4.32;;;-1.30;92.70;;;;;;5102509;28;20069;-81
2023/11/17 07:38:08;;;;;;;5.88;3.30;;;-1.20;92.50;;;;;;5077317;28;20431;-81
2023/11/17 07:40:34;;;;;;;4.68;2.90;;;-1.20;92.20;;;;;;5107049;28;20061;-82
2023/11/17 07:43:00;;;;;;;9.73;4.32;;;-1.40;92.10;;;;;;5098313;28;20096;-82
2023/11/17 07:45:26;;;;;;;5.20;2.72;;;-1.40;92.30;;;;;;5101046;28;20024;-82
2023/11/17 07:47:54;;;;;;;4.47;2.20;;;-1.40;92.30;;;;;;5095074;28;20036;-82
2023/11/17 07:50:20;;;;;;;5.47;3.40;;;-1.50;92.30;;;;;;5095148;28;20012;-83
2023/11/17 07:52:46;;;;;;;5.32;2.65;;;-1.40;92.30;;;;;;5095104;28;20422;-81
2023/11/17 07:55:15;;;;;;;3.58;2.20;;;-1.40;92.40;;;;;;5097229;28;20108;-79
2023/11/17 07:57:43;;;;;;;5.20;2.85;;;-1.40;92.40;;;;;;5092676;28;20020;-79
2023/11/17 08:00:27;;;;;;;6.07;2.90;;;-1.30;92.10;;;;;;5077433;28;20031;-80
2023/11/17 08:02:53;;;;;;;6.13;2.47;;;-1.30;92.00;;;;;;5094377;28;20016;-80
2023/11/17 08:05:20;;;;;;;4.40;2.03;;;-1.30;91.90;;;;;;5094026;28;20031;-81
2023/11/17 08:07:47;;;;;;;5.80;2.08;;;-1.30;91.80;;;;;;5101455;28;20106;-82
2023/11/17 08:10:13;;;;;;;3.03;2.20;;;-1.30;91.60;;;;;;5111981;28;20031;-81
2023/11/17 08:12:39;;;;;;;5.00;2.25;;;-1.30;91.40;;;;;;5110696;28;20385;-79
2023/11/17 08:15:06;;;;;;;8.80;2.55;;;-1.20;91.40;;;;;;5110329;28;20023;-82
2023/11/17 08:17:32;;;;;;;8.70;4.20;;;-1.10;91.40;;;;;;5107532;28;20036;-81
2023/11/17 08:19:59;;;;;;;16.20;5.45;;;-1.00;91.10;;;;;;5078027;28;20036;-81
2023/11/17 08:22:29;;;;;;;6.18;2.35;;;-0.90;91.20;;;;;;5092846;28;20370;-83
2023/11/17 08:24:56;;;;;;;7.70;2.80;;;-0.90;90.80;;;;;;5095238;28;20412;-82
2023/11/17 08:27:23;;;;;;;9.23;2.67;;;-0.90;90.80;;;;;;5108117;28;20080;-81
2023/11/17 08:29:48;;;;;;;10.32;3.80;;;-0.90;90.50;;;;;;5096734;28;20056;-79
2023/11/17 08:32:17;;;;;;;4.47;2.40;;;-0.90;90.20;;;;;;5084337;28;20055;-80
2023/11/17 08:34:46;;;;;;;5.53;2.33;;;-1.00;90.50;;;;;;5089144;28;20110;-80
2023/11/17 08:37:13;;;;;;;16.58;4.47;;;-1.00;90.30;;;;;;5075781;28;20028;-80
2023/11/17 08:39:39;;;;;;;3.78;3.00;;;-1.00;90.30;;;;;;5097236;28;20469;-80
2023/11/17 08:42:05;;;;;;;4.70;2.33;;;-1.00;90.30;;;;;;5110376;28;20074;-80
2023/11/17 08:44:32;;;;;;;5.05;1.92;;;-1.00;90.30;;;;;;5109064;28;20098;-81
2023/11/17 08:46:59;;;;;;;4.77;2.50;;;-1.00;90.20;;;;;;5096204;28;20032;-81
2023/11/17 08:49:25;;;;;;;7.20;2.67;;;-1.00;90.20;;;;;;5112079;28;20260;-82
2023/11/17 08:51:51;;;;;;;3.75;3.10;;;-0.90;90.20;;;;;;5098351;28;20024;-80
2023/11/17 08:54:18;;;;;;;8.45;2.88;;;-0.80;88.80;;;;;;5099241;28;20028;-79
2023/11/17 08:56:47;;;;;;;5.05;2.22;;;-0.90;88.60;;;;;;5103253;28;20024;-81
2023/11/17 08:59:14;;;;;;;6.38;2.25;;;-0.90;88.70;;;;;;5110727;28;20065;-79
2023/11/17 09:01:42;;;;;;;4.20;1.70;;;-0.90;88.70;;;;;;5111852;28;20380;-80
2023/11/17 09:04:08;;;;;;;2.15;1.67;;;-0.80;88.20;;;;;;5105589;28;20024;-81
2023/11/17 09:06:34;;;;;;;3.05;2.03;;;-0.80;88.10;;;;;;5108783;28;20034;-84
2023/11/17 09:09:04;;;;;;;4.45;2.47;;;-0.80;87.60;;;;;;5086648;28;20016;-83
2023/11/17 09:11:36;;;;;;;5.47;2.20;;;-0.80;87.40;;;;;;5092025;28;20027;-81
2023/11/17 09:14:06;;;;;;;3.58;2.10;;;-0.70;87.80;;;;;;5109082;28;20157;-80
2023/11/17 09:16:34;;;;;;;18.05;4.10;;;-0.70;87.80;;;;;;5105749;28;20030;-85
2023/11/17 09:19:01;;;;;;;4.97;2.85;;;-0.60;87.50;;;;;;5095661;28;20024;-87
2023/11/17 09:21:29;;;;;;;11.55;4.38;;;-0.70;87.40;;;;;;5102289;28;20484;-85
2023/11/17 09:23:55;;;;;;;5.47;2.53;;;-0.80;87.50;;;;;;5101276;28;20074;-86
2023/11/17 09:26:22;;;;;;;7.60;3.40;;;-0.80;88.00;;;;;;5101178;28;20028;-85
2023/11/17 09:28:48;;;;;;;4.47;2.40;;;-0.70;88.10;;;;;;5080326;28;20102;-84
2023/11/17 09:31:14;;;;;;;4.38;3.20;;;-0.70;87.90;;;;;;5111738;28;20062;-88
2023/11/17 09:33:39;;;;;;;7.72;2.20;;;-0.70;87.60;;;;;;5105449;28;20012;-85
2023/11/17 09:36:07;;;;;;;5.90;3.47;;;-0.80;87.30;;;;;;5104222;28;20073;-86
2023/11/17 09:38:34;;;;;;;;;;;-0.90;87.20;;;;;;5099189;28;20468;-87
2023/11/17 09:41:02;;;;;;;12.45;2.88;;;-1.00;87.80;;;;;;5101556;28;20352;-81
2023/11/17 09:43:36;;;;;;;4.43;2.50;;;-0.90;87.70;;;;;;5097250;28;20472;-85
2023/11/17 09:46:05;;;;;;;7.05;3.33;;;-0.90;87.20;;;;;;5103276;28;20392;-86
2023/11/17 09:48:36;;;;;;;6.40;2.92;;;-0.80;87.50;;;;;;5105183;28;20020;-87
2023/11/17 09:51:03;;;;;;;7.00;3.70;;;-0.80;87.80;;;;;;5109862;28;20035;-82
2023/11/17 09:53:35;;;;;;;5.85;2.92;;;-0.80;88.00;;;;;;5105716;28;20406;-82
2023/11/17 09:56:05;;;;;;;6.30;2.65;;;-0.70;87.80;;;;;;5097221;28;20024;-82
2023/11/17 09:58:32;;;;;;;4.38;2.00;;;-0.80;87.40;;;;;;5100023;28;20028;-82
2023/11/17 10:01:00;;;;;;;3.40;2.30;;;-0.80;86.90;;;;;;5087520;28;20024;-83
2023/11/17 10:03:28;;;;;;;2.75;2.35;;;-0.80;87.20;;;;;;5109288;28;20020;-81
2023/11/17 10:05:58;;;;;;;2.75;1.92;;;-0.80;86.70;;;;;;5091826;28;20504;-84
2023/11/17 10:08:24;;;;;;;3.90;1.60;;;-0.80;85.10;;;;;;5101812;28;20026;-82
2023/11/17 10:10:50;;;;;;;6.18;2.08;;;-0.70;85.20;;;;;;5103124;28;20024;-81
2023/11/17 10:13:18;;;;;;;5.68;2.15;;;-0.60;84.10;;;;;;5109530;28;20392;-84
2023/11/17 10:15:50;;;;;;;5.07;1.88;;;-0.60;83.90;;;;;;5102775;28;20023;-83
2023/11/17 10:18:29;;;;;;;5.47;2.78;;;-0.60;83.60;;;;;;5115944;28;20012;-81
2023/11/17 10:20:57;;;;;;;5.40;3.50;;;-0.70;84.10;;;;;;5099621;28;20043;-86
2023/11/17 10:23:25;;;;;;;4.72;3.20;;;-0.70;85.00;;;;;;5097189;28;20039;-83
2023/11/17 10:25:54;;;;;;;;;;;-0.80;85.80;;;;;;5098669;28;20105;-84
2023/11/17 10:28:21;;;;;;;9.23;2.63;;;-0.80;86.40;;;;;;5113457;28;19904;-84
2023/11/17 10:30:50;;;;;;;6.05;3.90;;;-0.90;86.80;;;;;;5111020;28;20106;-82
2023/11/17 10:33:33;;;;;;;5.50;3.05;;;-1.00;87.80;;;;;;5104785;28;20024;-81
2023/11/17 10:36:04;;;;;;;5.75;3.72;;;-1.00;88.50;;;;;;5106665;28;20396;-81
2023/11/17 10:38:34;;;;;;;7.40;3.55;;;-1.00;88.80;;;;;;5105802;28;20121;-84
2023/11/17 10:41:20;;;;;;;6.57;3.40;;;-0.90;89.30;;;;;;5093477;28;20481;-82
2023/11/17 10:43:51;;;;;;;6.18;3.53;;;-0.90;89.80;;;;;;5085676;28;20109;-83
2023/11/17 10:46:21;;;;;;;6.20;3.72;;;-0.90;90.10;;;;;;5106580;28;20500;-83
2023/11/17 10:48:50;;;;;;;4.28;3.40;;;-0.90;90.30;;;;;;5099515;28;20435;-85
2023/11/17 10:51:18;;;;;;;4.90;3.22;;;-1.00;90.40;;;;;;5084067;28;20062;-83
2023/11/17 10:54:03;;;;;;;4.30;2.92;;;-1.00;90.60;;;;;;5099771;28;20048;-81
2023/11/17 10:56:30;;;;;;;6.47;3.08;;;-1.00;90.70;;;;;;5077004;28;20031;-84
2023/11/17 10:58:58;;;;;;;6.85;3.55;;;-1.00;90.70;;;;;;5106859;28;20031;-84
2023/11/17 11:01:31;;;;;;;11.73;5.00;;;-1.00;90.90;;;;;;5110080;28;20040;-84
2023/11/17 11:04:02;;;;;;;7.60;4.18;;;-1.00;91.10;;;;;;5118201;28;20040;-82
2023/11/17 11:06:29;;;;;;;7.93;4.20;;;-1.00;91.30;;;;;;5084510;28;20189;-84
2023/11/17 11:08:59;;;;;;;4.65;3.70;;;-1.00;91.50;;;;;;5086976;28;20020;-84
2023/11/17 11:11:28;;;;;;;7.00;3.47;;;-1.00;91.50;;;;;;5105871;28;20024;-84
2023/11/17 11:14:02;;;;;;;8.95;3.85;;;-1.00;91.50;;;;;;5113463;28;20091;-82
2023/11/17 11:16:32;;;;;;;7.10;3.80;;;-1.00;91.70;;;;;;5107818;28;20020;-85
2023/11/17 11:18:59;;;;;;;5.78;3.55;;;-0.90;91.70;;;;;;5099696;28;20020;-86
2023/11/17 11:21:35;;;;;;;6.20;4.00;;;-0.90;91.70;;;;;;5086118;28;20433;-83
2023/11/17 11:24:04;;;;;;;9.30;4.60;;;-0.90;91.60;;;;;;5090439;28;20503;-83
2023/11/17 11:26:32;;;;;;;4.90;3.60;;;-0.90;91.00;;;;;;5099822;28;20035;-87
2023/11/17 11:28:59;;;;;;;6.95;3.72;;;-1.00;90.90;;;;;;5098861;28;20535;-86
2023/11/17 11:31:30;;;;;;;5.93;3.38;;;-1.00;90.90;;;;;;5083862;28;20024;-82
2023/11/17 11:33:57;;;;;;;5.88;3.42;;;-1.00;90.70;;;;;;5105277;28;20055;-84
2023/11/17 11:36:23;;;;;;;5.82;3.10;;;-1.00;90.60;;;;;;5103928;28;20019;-85
2023/11/17 11:38:52;;;;;;;7.00;3.85;;;-1.00;90.30;;;;;;5098224;28;20036;-84
2023/11/17 11:41:24;;;;;;;11.07;5.70;;;-1.00;90.20;;;;;;5078418;28;20024;-84
2023/11/17 11:43:57;;;;;;;9.63;4.40;;;-0.90;90.10;;;;;;5085735;28;20119;-84
2023/11/17 11:46:25;;;;;;;9.43;4.53;;;-0.90;90.40;;;;;;5099929;28;20032;-86
2023/11/17 11:49:05;;;;;;;5.45;3.33;;;-0.90;90.20;;;;;;5101202;28;20554;-85
2023/11/17 11:51:40;;;;;;;9.05;3.47;;;-0.90;90.20;;;;;;5108257;28;20053;-85
2023/11/17 11:54:10;;;;;;;9.35;4.20;;;-0.90;89.80;;;;;;5101411;28;20059;-87
2023/11/17 11:56:40;;;;;;;8.90;3.38;;;-1.00;89.90;;;;;;5081160;28;20024;-85
2023/11/17 11:59:06;;;;;;;6.00;3.63;;;-1.10;90.00;;;;;;5081760;28;20481;-85
2023/11/17 12:01:34;;;;;;;9.63;3.70;;;-1.10;90.00;;;;;;5091849;28;20504;-86
2023/11/17 12:04:05;;;;;;;7.22;4.07;;;-1.10;89.60;;;;;;5076958;28;20533;-88
2023/11/17 12:06:33;;;;;;;8.65;4.75;;;-1.00;89.20;;;;;;5111193;28;20059;-84
2023/11/17 12:08:59;;;;;;;8.30;4.07;;;-1.00;88.60;;;;;;5101135;28;20016;-83
2023/11/17 12:11:34;;;;;;;7.72;2.78;;;-1.00;88.40;;;;;;5081733;28;20024;-84
2023/11/17 12:14:04;;;;;;;6.03;3.53;;;-1.00;88.00;;;;;;5104534;28;20088;-84
2023/11/17 12:16:30;;;;;;;5.65;2.80;;;-1.10;87.40;;;;;;5090978;28;20022;-85
2023/11/17 12:19:01;;;;;;;6.55;3.05;;;-1.10;86.30;;;;;;5087429;28;20127;-83
2023/11/17 12:21:27;;;;;;;4.82;3.72;;;-1.10;85.40;;;;;;5103510;28;20055;-84
2023/11/17 12:23:57;;;;;;;3.78;2.90;;;-1.00;84.90;;;;;;5102919;28;20453;-84
2023/11/17 12:26:26;;;;;;;7.22;3.20;;;-1.00;84.40;;;;;;5100910;28;20027;-81
2023/11/17 12:28:54;;;;;;;5.25;2.45;;;-1.00;84.00;;;;;;5095366;28;20035;-81
2023/11/17 12:31:21;;;;;;;4.38;3.00;;;-1.10;83.80;;;;;;5084070;28;20023;-81
2023/11/17 12:33:53;;;;;;;2.90;2.40;;;-1.10;84.10;;;;;;5092086;28;20066;-86
2023/11/17 12:36:21;;;;;;;4.70;2.97;;;-1.20;84.40;;;;;;5106485;28;20264;-83
2023/11/17 12:38:59;;;;;;;7.93;3.75;;;-1.20;84.40;;;;;;5081748;28;20101;-84
2023/11/17 12:41:27;;;;;;;3.88;2.30;;;-1.20;84.90;;;;;;5102656;28;20389;-83
2023/11/17 12:43:56;;;;;;;4.75;1.85;;;-1.20;83.80;;;;;;5086586;28;20087;-82
2023/11/17 12:46:29;;;;;;;3.92;3.00;;;-1.10;82.50;;;;;;5119658;28;20031;-81
2023/11/17 12:48:56;;;;;;;2.83;2.33;;;-1.20;82.30;;;;;;5094531;28;20150;-82
2023/11/17 12:51:27;;;;;;;7.10;2.70;;;-1.20;82.30;;;;;;5108764;28;20417;-81
2023/11/17 12:53:55;;;;;;;11.20;2.55;;;-1.20;82.20;;;;;;5087857;28;20473;-80